To NAV CANADA Home Page Login to a new session Search on AWWS site Feedback and Comments Disclaimer Vers la page française équivalente Tips FAQ What's new on the site To the Forecasts and Observations / NOTAM section To "File a Flight Plan" website Publications and other links Update of the User's profile FIC Telephone Numbers My Weather Data Folder Route Weather Data Regional Weather Data Local Weather Data To the Forecasts and Observations / NOTAM section
Request Generated 12/10/2016 at 16:29:45 UTC . Weather information available at that time is displayed.


Go to a specific product

Save this request

NOTAM

NOTAM


SIGMET
To the Product Selector

SIGMETS GFACN32

GFACN32 - No SIGMET bulletins in effect



AIRMET
To the Product Selector

AIRMETS GFACN32

GFACN32 - No AIRMET bulletins in effect



PIREP
To the Product Selector

FIR_WINNIPEG (WG)

WG - PIREP not available



METAR/TAF
To the Product Selector

REGINA/REGINA INTL/SK    

METAR CYQR 101600Z 13010KT 15SM FEW040 BKN260 M27/M30 A3019 RMK
SC1CI4 SLP298=
METAR CYQR 101500Z 13009KT 15SM FEW010 BKN200 M27/M30 A3021 RMK
SF1CI4 SLP303=
METAR CYQR 101400Z 13007KT 15SM FEW200 M27/M30 A3023 RMK CI2 SLP308=

TAF CYQR 101138Z 1012/1112 12006KT P6SM SKC TEMPO 1012/1018 3SM IC BR
SCT006
FM101800 13008KT P6SM SKC
BECMG 1022/1024 09006KT
FM110600 VRB03KT P6SM IC SKC PROB30 1110/1112 2SM IC BR
RMK NXT FCST BY 101800Z=

MOOSE JAW/AIR VICE MARSHAL C.M. MCEWEN/SK    

CYMJ - METAR not available

*** REMARK        : Forecast period has ended; this was the last TAF issued
*** REMARQUE : La période de prévision est échue; ceci était le dernier TAF qui a été émis
TAF AMD CYMJ 092348Z 1000/1012 FCST CNCLD DUE END OF FLYING PROGRAM
RMK NXT FCST WILL BE ISSUED AT 111915Z=


RADAR PCPN RATE
To the Product Selector
Pacific Canada      Western Canada     

SATELLITE VISIBLE
To the Product Selector
West Canada      

SATELLITE INFRARED
To the Product Selector
West Canada     

GRAPHICAL FA CLOUDS & WEATHER FORECASTS
To the Product Selector
Graphical FA gfacn32      

GRAPHICAL FA ICING, TURBULENCE & FREEZING LEVEL FORECASTS
To the Product Selector
Graphical FA gfacn32      

FDTEXT Low Level FD. Temperatures are not forecast for the 3,000-foot level.
To the Product Selector
STN YQR - REGINA. SASK for use 3000 6000 9000 12000 18000
FDCN01 CWAO FCST BASED ON 101200 DATA VALID 101800 17-21 9900-20 2805-19 2919-23 2933-37
FDCN02 CWAO FCST BASED ON 101200 DATA VALID 110000 21-06 1112-19 9900-17 2716-22 2938-35
FDCN03 CWAO FCST BASED ON 101200 DATA VALID 111200 06-17 1707-19 2106-18 2914-24 2928-37



Your time UTC time
Weather data provided by Environment Canada and NAV CANADA